Deep River, Iowa
Current Conditions -  °F | °C
As of 8:55 AM on Tuesday 21 Oct 2014 (Local Time) from KGGI Reporting Station
Clear Clear  
Wind Chill:   Ceiling: Unl
Heat Index:   Visibility: 10mi
Dew Point:   Wind: 7mph
Humidity: 87%   Direction: 80°E
Pressure: 30.17"   Gusts: NA
Location:  41.58°N, 92.37°W
Report Text: KGGI 211355Z AUTO 08006KT 10SM CLR 07/05 A3017 RMK AO2 T00740054
Loading
Personal Weather Stations






























Interactive Weather Map
Tropical Storm Tracking
New forecast layout! Learn more

10-Day Weather Forecast

Advertisements
Track Severe Weather on mobile